createdAt,value
2022-08-02T00:02:57.002Z,69.97
2022-08-02T00:06:00.096Z,70.06
2022-08-02T00:09:04.850Z,70.04
2022-08-02T00:12:08.963Z,70.06
2022-08-02T00:15:16.169Z,70.04
2022-08-02T00:18:19.473Z,70.11
2022-08-02T00:21:22.384Z,70.19
2022-08-02T00:24:30.638Z,70.22
2022-08-02T00:27:34.281Z,70.30
2022-08-02T00:30:37.841Z,70.41
2022-08-02T00:34:26.441Z,70.40
2022-08-02T00:37:03.768Z,70.46
2022-08-02T00:40:07.925Z,70.50
2022-08-02T00:43:11.868Z,70.52
2022-08-02T00:46:16.303Z,70.52
2022-08-02T00:49:21.150Z,70.61
2022-08-02T00:52:24.921Z,70.70
2022-08-02T00:55:30.939Z,70.68
2022-08-02T00:58:34.636Z,70.70
2022-08-02T01:01:57.479Z,70.71
2022-08-02T01:05:01.108Z,70.73
2022-08-02T01:08:04.266Z,70.71
2022-08-02T01:11:07.608Z,70.84
2022-08-02T01:14:13.176Z,70.83
2022-08-02T01:17:23.707Z,70.86
2022-08-02T01:20:35.341Z,70.92
2022-08-02T01:23:38.135Z,70.89
2022-08-02T01:26:49.744Z,70.95
2022-08-02T01:29:59.016Z,70.96
2022-08-02T01:33:05.052Z,71.06
2022-08-02T01:36:12.186Z,71.03
2022-08-02T01:39:27.349Z,70.97
2022-08-02T01:42:38.656Z,71.03
2022-08-02T01:45:42.826Z,71.09
2022-08-02T01:48:47.626Z,71.11
2022-08-02T01:52:11.385Z,71.06
2022-08-02T01:55:23.277Z,71.09
2022-08-02T01:58:40.431Z,71.13
2022-08-02T02:01:46.066Z,71.15
2022-08-02T02:04:51.722Z,71.16
2022-08-02T02:08:00.268Z,71.26
2022-08-02T02:12:11.897Z,71.32
2022-08-02T02:14:29.537Z,71.38
2022-08-02T02:18:11.117Z,71.29
2022-08-02T02:20:57.117Z,71.31
2022-08-02T02:24:00.210Z,71.33
2022-08-02T02:27:04.276Z,71.34
2022-08-02T02:30:07.878Z,71.37
2022-08-02T02:33:13.781Z,71.45
2022-08-02T02:36:22.355Z,71.51
2022-08-02T02:39:28.545Z,71.55
2022-08-02T02:42:33.683Z,71.59
2022-08-02T02:45:38.125Z,71.63
2022-08-02T02:48:41.975Z,71.68
2022-08-02T02:51:46.098Z,71.64
2022-08-02T02:54:50.789Z,71.66
2022-08-02T02:57:55.265Z,71.68
2022-08-02T03:01:16.870Z,71.73
2022-08-02T03:04:21.208Z,71.74
2022-08-02T03:07:24.458Z,71.79
2022-08-02T03:10:28.599Z,71.67
2022-08-02T03:13:33.191Z,71.75
2022-08-02T03:16:50.825Z,71.73
2022-08-02T03:19:53.831Z,71.80
2022-08-02T03:22:56.743Z,71.76
2022-08-02T03:26:00.208Z,71.78
2022-08-02T03:29:10.292Z,71.81
2022-08-02T03:32:14.362Z,71.77
2022-08-02T03:35:23.731Z,71.80
2022-08-02T03:38:28.873Z,71.81
2022-08-02T03:41:35.763Z,71.90
2022-08-02T03:44:39.749Z,71.87
2022-08-02T03:47:44.202Z,71.89
2022-08-02T03:50:48.567Z,71.86
2022-08-02T03:53:52.027Z,71.83
2022-08-02T03:56:55.452Z,71.92
2022-08-02T03:59:58.511Z,71.89
2022-08-02T04:03:01.432Z,71.88
2022-08-02T04:06:05.051Z,71.95
2022-08-02T04:09:08.054Z,71.98
2022-08-02T04:12:11.124Z,71.94
2022-08-02T04:15:15.125Z,71.92
2022-08-02T04:18:22.450Z,72.00
2022-08-02T04:21:49.093Z,71.95
2022-08-02T04:24:56.237Z,71.94
2022-08-02T04:28:16.675Z,71.95
2022-08-02T04:31:21.529Z,71.94
2022-08-02T04:34:24.679Z,71.97
2022-08-02T04:37:27.683Z,71.99
2022-08-02T04:40:30.621Z,72.00
2022-08-02T04:43:33.643Z,71.96
2022-08-02T04:46:37.117Z,71.97
2022-08-02T04:49:40.185Z,71.90
2022-08-02T04:52:45.893Z,71.84
2022-08-02T04:55:49.000Z,71.90
2022-08-02T04:58:51.922Z,71.89
2022-08-02T05:01:54.825Z,71.82
2022-08-02T05:04:57.700Z,71.84
2022-08-02T05:08:00.999Z,71.87
2022-08-02T05:11:03.901Z,71.81
2022-08-02T05:14:06.812Z,71.76
2022-08-02T05:17:09.693Z,71.71
2022-08-02T05:20:13.805Z,71.67
2022-08-02T05:23:16.672Z,71.69
2022-08-02T05:26:19.698Z,71.67
2022-08-02T05:29:23.228Z,71.66
2022-08-02T05:32:26.575Z,71.69
2022-08-02T05:35:29.466Z,71.76
2022-08-02T05:38:32.716Z,71.83
2022-08-02T05:41:40.460Z,71.84
2022-08-02T05:44:43.310Z,71.75
2022-08-02T05:47:46.314Z,71.77
2022-08-02T05:50:53.048Z,71.75
2022-08-02T05:54:02.200Z,71.72
2022-08-02T05:57:12.642Z,71.77
2022-08-02T06:00:16.282Z,71.83
2022-08-02T06:03:25.449Z,71.87
2022-08-02T06:06:32.389Z,71.78
2022-08-02T06:09:36.128Z,71.70
2022-08-02T06:12:47.907Z,71.73
2022-08-02T06:15:53.823Z,71.76
2022-08-02T06:18:58.869Z,71.75
2022-08-02T06:22:33.240Z,71.77
2022-08-02T06:25:48.400Z,71.65
2022-08-02T06:28:55.697Z,71.73
2022-08-02T06:31:59.322Z,71.67
2022-08-02T06:35:04.618Z,71.68
2022-08-02T06:38:15.882Z,71.71
2022-08-02T06:41:19.801Z,71.65
2022-08-02T06:47:45.980Z,71.67
2022-08-02T06:50:49.039Z,71.63
2022-08-02T06:53:52.136Z,71.66
2022-08-02T06:56:56.179Z,71.69
2022-08-02T07:00:06.024Z,71.67
2022-08-02T07:03:09.088Z,71.61
2022-08-02T07:06:12.176Z,71.61
2022-08-02T07:09:22.391Z,71.63
2022-08-02T07:12:25.499Z,71.57
2022-08-02T07:15:34.914Z,71.60
2022-08-02T07:18:37.844Z,71.56
2022-08-02T07:21:56.947Z,71.58
2022-08-02T07:25:03.919Z,71.50
2022-08-02T07:28:15.306Z,71.49
2022-08-02T07:31:25.214Z,71.38
2022-08-02T07:34:28.250Z,71.21
2022-08-02T07:37:54.140Z,71.21
2022-08-02T07:40:56.952Z,71.20
2022-08-02T07:43:59.869Z,71.11
2022-08-02T07:47:03.463Z,71.03
2022-08-02T07:50:08.329Z,71.07
2022-08-02T07:53:11.269Z,71.12
2022-08-02T07:56:14.247Z,71.03
2022-08-02T07:59:17.195Z,70.94
2022-08-02T08:02:20.349Z,70.85
2022-08-02T08:05:23.929Z,70.70
2022-08-02T08:08:27.145Z,70.63
2022-08-02T08:11:30.219Z,70.60
2022-08-02T08:14:33.400Z,70.30
2022-08-02T08:17:38.857Z,70.17
2022-08-02T08:20:41.871Z,70.20
2022-08-02T08:23:45.610Z,70.07
2022-08-02T08:26:48.727Z,70.05
2022-08-02T08:29:56.275Z,70.19
2022-08-02T08:32:59.286Z,70.06
2022-08-02T08:36:02.726Z,70.12
2022-08-02T08:39:06.278Z,69.87
2022-08-02T08:42:09.882Z,69.70
2022-08-02T08:45:13.706Z,69.84
2022-08-02T08:48:30.158Z,69.83
2022-08-02T08:51:42.146Z,69.78
2022-08-02T08:54:48.447Z,69.77
2022-08-02T08:57:52.822Z,70.02
2022-08-02T09:00:55.959Z,69.99
2022-08-02T09:03:59.181Z,69.97
2022-08-02T09:07:02.164Z,69.76
2022-08-02T09:10:33.599Z,69.77
2022-08-02T09:13:44.717Z,69.60
2022-08-02T09:16:49.254Z,69.51
2022-08-02T09:20:08.053Z,69.54
2022-08-02T09:23:12.370Z,69.35
2022-08-02T09:26:18.856Z,69.12
2022-08-02T09:29:24.209Z,68.98
2022-08-02T09:32:29.797Z,68.75
2022-08-02T09:36:05.979Z,68.70
2022-08-02T09:39:03.016Z,68.73
2022-08-02T09:42:10.846Z,68.69
2022-08-02T09:45:14.328Z,68.62
2022-08-02T09:48:17.826Z,68.48
2022-08-02T09:51:26.108Z,68.58
2022-08-02T09:54:29.802Z,68.25
2022-08-02T09:57:38.749Z,67.71
2022-08-02T10:00:53.322Z,67.70
2022-08-02T10:04:00.348Z,67.60
2022-08-02T10:07:04.503Z,67.45
2022-08-02T10:10:08.406Z,67.24
2022-08-02T10:13:12.677Z,67.52
2022-08-02T10:16:25.252Z,67.75
2022-08-02T10:20:01.248Z,67.91
2022-08-02T10:22:52.598Z,67.59
2022-08-02T10:25:57.473Z,67.58
2022-08-02T10:29:03.532Z,67.39
2022-08-02T10:32:38.140Z,67.32
2022-08-02T10:35:42.082Z,67.66
2022-08-02T10:38:46.450Z,67.61
2022-08-02T10:41:53.275Z,67.72
2022-08-02T10:45:10.986Z,67.87
2022-08-02T10:48:17.085Z,67.83
2022-08-02T10:51:24.372Z,67.61
2022-08-02T10:54:42.754Z,67.40
2022-08-02T10:57:48.703Z,67.58
2022-08-02T11:00:55.907Z,67.30
2022-08-02T11:04:00.655Z,67.06
2022-08-02T11:07:17.325Z,66.58
2022-08-02T11:10:31.105Z,66.00
2022-08-02T11:14:04.840Z,65.27
2022-08-02T11:17:18.395Z,64.78
2022-08-02T11:20:28.999Z,64.46
2022-08-02T11:23:44.480Z,64.21
2022-08-02T11:26:49.399Z,64.04
2022-08-02T11:29:52.666Z,63.76
2022-08-02T11:33:01.249Z,63.50
2022-08-02T11:36:07.482Z,63.57
2022-08-02T11:39:12.977Z,63.57
2022-08-02T11:42:18.980Z,63.79
2022-08-02T11:45:29.283Z,64.11
2022-08-02T11:48:37.941Z,63.76
2022-08-02T11:52:00.711Z,63.55
2022-08-02T11:55:05.077Z,63.27
2022-08-02T11:58:11.726Z,63.30
2022-08-02T12:01:16.146Z,63.46
2022-08-02T12:04:22.430Z,63.19
2022-08-02T12:07:35.323Z,62.89
2022-08-02T12:10:48.729Z,62.55
2022-08-02T12:13:56.550Z,61.93
2022-08-02T12:17:19.215Z,61.44
2022-08-02T12:20:36.045Z,60.57
2022-08-02T12:23:59.416Z,59.93
2022-08-02T12:27:04.576Z,59.53
2022-08-02T12:30:12.483Z,59.10
2022-08-02T12:33:15.888Z,59.16
2022-08-02T12:36:21.392Z,59.41
2022-08-02T12:39:44.328Z,59.49
2022-08-02T12:43:17.795Z,59.36
2022-08-02T12:46:22.378Z,59.52
2022-08-02T12:49:25.566Z,59.47
2022-08-02T12:52:28.458Z,59.57
2022-08-02T12:55:59.379Z,59.57
2022-08-02T12:58:54.807Z,59.67
2022-08-02T13:02:02.193Z,59.95
2022-08-02T13:05:05.927Z,59.91
2022-08-02T13:08:08.872Z,60.04
2022-08-02T13:11:12.149Z,59.97
2022-08-02T13:14:15.882Z,60.16
2022-08-02T13:17:18.917Z,59.95
2022-08-02T13:20:21.905Z,59.77
2022-08-02T13:23:53.864Z,60.03
2022-08-02T13:26:50.375Z,60.32
2022-08-02T13:29:55.233Z,60.27
2022-08-02T13:33:01.115Z,60.21
2022-08-02T13:36:04.794Z,60.39
2022-08-02T13:39:12.764Z,60.45
2022-08-02T13:42:16.949Z,60.38
2022-08-02T13:45:20.183Z,60.40
2022-08-02T13:48:23.068Z,60.50
2022-08-02T13:51:26.724Z,60.44
2022-08-02T13:54:29.688Z,60.01
2022-08-02T13:57:32.628Z,59.80
2022-08-02T14:00:36.337Z,59.68
2022-08-02T14:04:07.524Z,59.97
2022-08-02T14:07:02.227Z,59.68
2022-08-02T14:10:05.609Z,59.05
2022-08-02T14:13:08.774Z,58.88
2022-08-02T14:16:11.742Z,58.98
2022-08-02T14:19:16.700Z,59.19
2022-08-02T14:22:20.080Z,58.82
2022-08-02T14:25:23.058Z,59.18
2022-08-02T14:28:25.966Z,59.09
2022-08-02T14:31:29.986Z,58.63
2022-08-02T14:34:32.877Z,58.75
2022-08-02T14:37:35.969Z,59.19
2022-08-02T14:40:38.914Z,58.92
2022-08-02T14:44:00.249Z,58.21
2022-08-02T14:47:03.191Z,58.06
2022-08-02T14:50:06.357Z,58.25
2022-08-02T14:53:12.834Z,58.07
2022-08-02T14:56:16.106Z,58.22
2022-08-02T14:59:19.046Z,58.47
2022-08-02T15:02:22.014Z,58.49
2022-08-02T15:05:24.977Z,58.35
2022-08-02T15:08:27.962Z,58.28
2022-08-02T15:11:30.845Z,58.19
2022-08-02T15:14:52.351Z,58.50
2022-08-02T15:17:55.292Z,58.60
2022-08-02T15:20:58.201Z,58.74
2022-08-02T15:24:01.125Z,58.37
2022-08-02T15:27:04.226Z,58.47
2022-08-02T15:30:07.521Z,58.60
2022-08-02T15:33:10.446Z,58.65
2022-08-02T15:36:13.320Z,58.72
2022-08-02T15:39:16.214Z,58.83
2022-08-02T15:42:20.265Z,58.90
2022-08-02T15:45:35.255Z,59.09
2022-08-02T15:48:39.119Z,59.14
2022-08-02T15:51:41.971Z,59.31
2022-08-02T15:54:44.835Z,59.36
2022-08-02T15:57:47.760Z,59.33
2022-08-02T16:00:50.745Z,59.35
2022-08-02T16:03:53.625Z,59.42
2022-08-02T16:06:56.532Z,59.59
2022-08-02T16:09:59.613Z,59.63
2022-08-02T16:13:21.603Z,59.78
2022-08-02T16:16:32.936Z,59.77
2022-08-02T16:19:48.204Z,59.71
2022-08-02T16:22:52.770Z,59.72
2022-08-02T16:25:55.676Z,59.78
2022-08-02T16:28:59.733Z,59.78
2022-08-02T16:32:02.985Z,59.94
2022-08-02T16:35:07.451Z,60.15
2022-08-02T16:38:11.405Z,60.19
2022-08-02T16:41:16.283Z,60.32
2022-08-02T16:44:26.721Z,60.21
2022-08-02T16:47:42.710Z,59.97
2022-08-02T16:50:47.281Z,60.22
2022-08-02T16:54:00.053Z,60.44
2022-08-02T16:57:05.089Z,60.37
2022-08-02T17:00:10.196Z,60.44
2022-08-02T17:03:13.840Z,60.71
2022-08-02T17:06:16.754Z,60.92
2022-08-02T17:10:01.618Z,60.93
2022-08-02T17:12:44.265Z,60.68
2022-08-02T17:16:15.752Z,61.03
2022-08-02T17:19:10.012Z,61.19
2022-08-02T17:22:13.218Z,61.42
2022-08-02T17:25:21.498Z,61.75
2022-08-02T17:28:32.070Z,61.66
2022-08-02T17:32:05.741Z,61.99
2022-08-02T17:35:12.029Z,62.10
2022-08-02T17:38:26.356Z,62.16
2022-08-02T17:41:38.101Z,62.23
2022-08-02T17:45:06.959Z,62.28
2022-08-02T17:48:21.403Z,62.38
2022-08-02T17:52:48.588Z,62.64
2022-08-02T17:54:56.113Z,62.85
2022-08-02T17:58:00.454Z,62.91
2022-08-02T18:01:09.249Z,63.02
2022-08-02T18:04:28.414Z,63.06
2022-08-02T18:07:49.557Z,63.26
2022-08-02T18:10:55.831Z,63.25
2022-08-02T18:13:58.872Z,63.19
2022-08-02T18:17:04.759Z,63.22
2022-08-02T18:20:10.935Z,63.43
2022-08-02T18:23:14.894Z,63.34
2022-08-02T18:26:20.815Z,63.53
2022-08-02T18:29:24.778Z,63.53
2022-08-02T18:33:53.750Z,63.70
2022-08-02T18:35:56.167Z,63.79
2022-08-02T18:39:08.275Z,63.92
2022-08-02T18:42:11.969Z,63.99
2022-08-02T18:45:20.541Z,64.03
2022-08-02T18:48:23.451Z,64.06
2022-08-02T18:51:36.480Z,64.08
2022-08-02T18:54:39.741Z,64.13
2022-08-02T18:58:04.373Z,64.32
2022-08-02T19:01:14.776Z,64.30
2022-08-02T19:04:27.166Z,64.27
2022-08-02T19:07:50.923Z,64.39
2022-08-02T19:10:56.432Z,64.38
2022-08-02T19:14:00.527Z,64.48
2022-08-02T19:17:53.496Z,64.59
2022-08-02T19:20:27.442Z,64.59
2022-08-02T19:23:32.893Z,64.77
2022-08-02T19:26:36.027Z,64.80
2022-08-02T19:29:42.863Z,64.90
2022-08-02T19:32:59.004Z,64.84
2022-08-02T19:36:09.875Z,64.85
2022-08-02T19:39:17.678Z,65.02
2022-08-02T19:42:22.415Z,65.07
2022-08-02T19:45:49.255Z,65.06
2022-08-02T19:48:48.585Z,65.04
2022-08-02T19:51:55.517Z,65.09
2022-08-02T19:55:01.892Z,65.13
2022-08-02T19:58:23.617Z,65.20
2022-08-02T20:01:36.829Z,65.37
2022-08-02T20:04:52.992Z,65.46
2022-08-02T20:07:57.228Z,65.44
2022-08-02T20:11:00.747Z,65.56
2022-08-02T20:14:07.550Z,65.61
2022-08-02T20:17:14.155Z,65.54
2022-08-02T20:20:17.756Z,65.55
2022-08-02T20:23:32.728Z,65.58
2022-08-02T20:26:47.788Z,65.54
2022-08-02T20:29:51.718Z,65.63
2022-08-02T20:33:02.545Z,65.60
2022-08-02T20:36:23.647Z,65.76
2022-08-02T20:39:43.665Z,65.76
2022-08-02T20:42:47.745Z,65.85
2022-08-02T20:45:51.573Z,65.79
2022-08-02T20:48:57.468Z,65.80
2022-08-02T20:52:04.560Z,65.84
2022-08-02T20:55:27.890Z,65.73
2022-08-02T20:58:33.993Z,65.84
2022-08-02T21:01:37.433Z,65.86
2022-08-02T21:04:42.064Z,65.78
2022-08-02T21:07:47.859Z,65.89
2022-08-02T21:11:13.892Z,65.96
2022-08-02T21:14:18.752Z,65.93
2022-08-02T21:17:27.529Z,66.01
2022-08-02T21:20:45.658Z,66.02
2022-08-02T21:23:54.691Z,66.06
2022-08-02T21:26:58.408Z,66.14
2022-08-02T21:30:01.746Z,66.19
2022-08-02T21:33:04.742Z,66.20
2022-08-02T21:36:21.077Z,66.28
2022-08-02T21:39:24.516Z,66.36
2022-08-02T21:42:27.413Z,66.43
2022-08-02T21:45:30.875Z,66.45
2022-08-02T21:48:33.997Z,66.52
2022-08-02T21:51:42.987Z,66.52
2022-08-02T21:55:04.206Z,66.46
2022-08-02T21:58:07.320Z,66.50
2022-08-02T22:01:10.277Z,66.49
2022-08-02T22:04:15.367Z,66.51
2022-08-02T22:07:23.636Z,66.49
2022-08-02T22:10:26.955Z,66.41
2022-08-02T22:13:38.595Z,66.35
2022-08-02T22:16:49.991Z,66.32
2022-08-02T22:19:54.459Z,66.30
2022-08-02T22:22:57.573Z,66.33
2022-08-02T22:26:00.674Z,66.32
2022-08-02T22:29:04.737Z,66.43
2022-08-02T22:32:08.568Z,66.42
2022-08-02T22:35:11.473Z,66.44
2022-08-02T22:42:01.312Z,66.36
2022-08-02T22:45:00.922Z,66.38
2022-08-02T22:48:03.844Z,66.45
2022-08-02T22:51:07.022Z,66.45
2022-08-02T22:57:33.373Z,66.60
2022-08-02T22:59:10.012Z,66.56
2022-08-02T23:00:56.263Z,66.60
2022-08-02T23:03:59.135Z,66.59
2022-08-02T23:07:02.213Z,66.60
2022-08-02T23:10:06.147Z,66.61
2022-08-02T23:13:09.223Z,66.59
2022-08-02T23:16:30.437Z,66.60
2022-08-02T23:19:51.610Z,66.54
2022-08-02T23:22:55.671Z,66.57
2022-08-02T23:25:58.729Z,66.57
2022-08-02T23:29:01.681Z,66.64
2022-08-02T23:32:04.743Z,66.62
2022-08-02T23:35:09.491Z,66.56
2022-08-02T23:38:19.767Z,66.62
2022-08-02T23:41:22.905Z,66.67
2022-08-02T23:44:26.995Z,66.74
2022-08-02T23:47:30.688Z,66.81
2022-08-02T23:50:33.538Z,66.86
2022-08-02T23:53:36.475Z,66.77
2022-08-02T23:56:41.490Z,66.66
2022-08-02T23:59:46.217Z,66.62
